Time;durP1;ratioP1;P1;durP2;ratioP2;P2;SDS_P1;SDS_P2;PMS_P1;PMS_P2;Temp;Humidity;BMP_temperature;BMP_pressure;BME280_temperature;BME280_humidity;BME280_pressure;Samples;Min_cycle;Max_cycle;Signal;HPM_P1;HPM_P2
2023/01/10 00:01:41;;;;;;;15.55;13.95;;;;;;;4.20;74.90;94164.22;5096493;28;20303;-73
2023/01/10 00:04:09;;;;;;;16.15;14.45;;;;;;;4.14;75.86;94151.91;5078498;28;20201;-74
2023/01/10 00:06:37;;;;;;;16.73;14.93;;;;;;;4.20;74.64;94151.38;5078860;28;20211;-74
2023/01/10 00:09:06;;;;;;;15.60;14.05;;;;;;;4.23;74.25;94163.56;5078653;28;20204;-74
2023/01/10 00:14:27;;;;;;;16.27;14.50;;;;;;;4.26;74.71;94158.25;5096173;28;20197;-74
2023/01/10 00:16:55;;;;;;;15.60;13.90;;;;;;;4.30;74.50;94148.25;5096255;28;20269;-74
2023/01/10 00:19:23;;;;;;;16.60;14.90;;;;;;;4.16;74.51;94141.47;5096193;28;20208;-74
2023/01/10 00:21:51;;;;;;;15.90;14.38;;;;;;;3.94;75.72;94137.16;5078835;28;20201;-75
2023/01/10 00:24:18;;;;;;;15.80;14.13;;;;;;;3.78;76.18;94137.78;5078780;28;20215;-74
2023/01/10 00:26:50;;;;;;;15.23;13.73;;;;;;;3.74;76.24;94136.84;5078487;28;20635;-74
2023/01/10 00:29:19;;;;;;;16.30;14.70;;;;;;;3.71;76.76;94103.97;5078268;28;20247;-74
2023/01/10 00:31:46;;;;;;;15.63;14.00;;;;;;;3.45;77.86;94125.97;5095908;28;20259;-74
2023/01/10 00:34:14;;;;;;;16.00;14.50;;;;;;;3.46;77.97;94135.75;5095659;28;20223;-74
2023/01/10 00:36:44;;;;;;;15.05;13.52;;;;;;;3.62;77.27;94155.84;5078282;28;20208;-74
2023/01/10 00:39:12;;;;;;;15.60;14.00;;;;;;;3.79;77.14;94133.91;5095915;28;20291;-74
2023/01/10 00:44:31;;;;;;;14.57;13.23;;;;;;;3.91;76.20;94081.34;5078115;28;20279;-74
2023/01/10 00:46:59;;;;;;;14.93;13.43;;;;;;;3.93;75.46;94070.91;5078113;28;20208;-74
2023/01/10 00:49:27;;;;;;;14.90;13.40;;;;;;;3.97;75.65;94084.66;5096035;28;20250;-74
2023/01/10 00:51:58;;;;;;;15.80;14.20;;;;;;;4.02;75.48;94117.97;5078325;28;20212;-74
2023/01/10 00:54:26;;;;;;;15.00;13.55;;;;;;;4.12;75.27;94143.28;5077789;28;20268;-73
2023/01/10 00:56:54;;;;;;;13.95;12.55;;;;;;;4.16;75.06;94068.56;5077478;28;20208;-73
2023/01/10 00:59:22;;;;;;;15.13;13.73;;;;;;;4.03;75.15;94149.63;5078256;28;20208;-73
2023/01/10 01:01:52;;;;;;;13.65;12.32;;;;;;;4.02;75.17;94098.88;5078143;28;20200;-73
2023/01/10 01:04:19;;;;;;;15.05;13.05;;;;;;;3.98;75.23;94103.41;5077779;28;20671;-73
2023/01/10 01:06:49;;;;;;;14.00;12.70;;;;;;;4.08;74.96;94067.53;5077712;28;20212;-72
2023/01/10 01:09:17;;;;;;;13.40;12.10;;;;;;;3.96;75.82;94089.34;5077824;28;20262;-72
2023/01/10 01:11:45;;;;;;;13.63;12.32;;;;;;;4.04;75.98;94114.94;5077744;28;20196;-73
2023/01/10 01:14:13;;;;;;;14.50;13.13;;;;;;;4.14;75.23;94121.91;5078117;28;20211;-72
2023/01/10 01:16:41;;;;;;;14.18;12.73;;;;;;;4.22;74.97;94113.66;5078300;28;20212;-72
2023/01/10 01:19:11;;;;;;;14.52;13.13;;;;;;;4.26;74.93;94108.31;5077724;28;20222;-72
2023/01/10 01:21:39;;;;;;;14.07;12.68;;;;;;;4.28;74.84;94101.34;5078534;28;20208;-72
2023/01/10 01:24:08;;;;;;;13.88;12.48;;;;;;;4.30;74.34;94088.19;5077889;28;20493;-72
2023/01/10 01:26:36;;;;;;;15.60;14.10;;;;;;;4.28;74.16;94082.25;5095564;28;20196;-72
2023/01/10 01:29:04;;;;;;;14.00;12.65;;;;;;;4.20;74.29;94080.41;5094962;28;20204;-72
2023/01/10 01:31:32;;;;;;;14.85;13.35;;;;;;;4.23;74.72;94095.31;5095233;28;20201;-72
2023/01/10 01:33:58;;;;;;;14.40;12.90;;;;;;;4.28;74.64;94109.56;5077133;28;20208;-72
2023/01/10 01:36:28;;;;;;;14.30;12.90;;;;;;;4.26;74.75;94081.81;5095074;28;20204;-72
2023/01/10 01:38:56;;;;;;;14.25;12.82;;;;;;;4.19;74.78;94072.56;5078269;28;20203;-74
2023/01/10 01:44:15;;;;;;;13.80;12.50;;;;;;;4.19;75.07;94072.56;5099608;28;20184;-72
2023/01/10 01:46:47;;;;;;;13.45;12.20;;;;;;;4.24;74.78;94077.81;5081661;28;20196;-72
2023/01/10 01:49:19;;;;;;;13.48;12.18;;;;;;;4.27;74.84;94105.22;5081423;28;20204;-72
2023/01/10 01:51:50;;;;;;;13.32;12.00;;;;;;;4.32;74.63;94064.09;5098885;28;20613;-72
2023/01/10 01:54:19;;;;;;;13.85;12.55;;;;;;;4.29;74.12;94086.59;5099073;28;20227;-72
2023/01/10 01:56:50;;;;;;;13.77;12.40;;;;;;;4.32;74.02;94079.66;5099669;28;20204;-72
2023/01/10 01:59:21;;;;;;;12.95;11.75;;;;;;;4.32;74.35;94044.97;5099175;28;20201;-72
2023/01/10 02:01:51;;;;;;;13.13;11.93;;;;;;;4.25;74.80;94033.03;5083285;28;20282;-72
2023/01/10 02:04:21;;;;;;;13.88;12.55;;;;;;;4.10;75.41;94020.78;5099532;28;20197;-72
2023/01/10 02:06:52;;;;;;;14.20;12.80;;;;;;;4.11;75.13;94077.00;5080881;28;20197;-72
2023/01/10 02:09:25;;;;;;;13.80;12.50;;;;;;;4.20;75.31;94069.50;5081417;28;20196;-72
2023/01/10 02:11:55;;;;;;;12.98;11.77;;;;;;;4.24;75.03;94050.50;5081880;28;20208;-73
2023/01/10 02:14:24;;;;;;;14.30;13.00;;;;;;;4.26;74.90;94062.69;5098741;28;20219;-72
2023/01/10 02:16:52;;;;;;;13.70;12.30;;;;;;;4.24;74.68;94036.88;5098680;28;20192;-72
2023/01/10 02:19:27;;;;;;;14.30;12.90;;;;;;;4.29;74.70;94023.03;5080512;28;20211;-72
2023/01/10 02:22:41;;;;;;;14.23;12.82;;;;;;;4.31;74.78;94018.78;5081028;28;20200;-72
2023/01/10 02:25:55;;;;;;;14.27;12.98;;;;;;;4.30;74.84;94025.41;5080483;28;20624;-72
2023/01/10 02:28:57;;;;;;;13.57;12.27;;;;;;;4.28;74.75;94019.47;5000284;28;20341;-72
2023/01/10 02:31:44;;;;;;;12.65;11.45;;;;;;;4.25;74.68;94036.53;5080926;28;20215;-72
2023/01/10 02:34:19;;;;;;;12.85;11.65;;;;;;;4.25;74.75;94024.84;5063902;28;20227;-72
2023/01/10 02:36:52;;;;;;;11.75;10.65;;;;;;;4.24;74.81;94017.75;5080141;28;20206;-72
2023/01/10 02:39:25;;;;;;;13.60;12.30;;;;;;;4.29;74.76;94023.81;5080491;28;20208;-72
2023/01/10 02:42:01;;;;;;;13.07;11.77;;;;;;;4.30;74.68;94010.97;5080895;28;20200;-72
2023/01/10 02:44:34;;;;;;;13.52;12.23;;;;;;;4.29;74.77;94021.09;5080565;28;20624;-72
2023/01/10 02:47:03;;;;;;;12.68;11.48;;;;;;;4.30;74.84;94019.94;5098428;28;20257;-72
2023/01/10 02:49:41;;;;;;;13.38;12.07;;;;;;;4.29;74.55;94015.63;5098534;28;20192;-72
2023/01/10 02:52:10;;;;;;;12.20;11.10;;;;;;;4.23;75.00;94019.69;5080358;28;20261;-72
2023/01/10 02:54:38;;;;;;;12.05;10.95;;;;;;;4.21;74.39;94024.72;5097774;28;20625;-72
2023/01/10 02:57:36;;;;;;;12.68;11.48;;;;;;;4.22;75.33;94025.50;5097587;28;20200;-72
2023/01/10 03:00:26;;;;;;;13.52;12.23;;;;;;;4.18;75.20;94038.25;5035808;28;20277;-72
2023/01/10 03:03:13;;;;;;;14.57;13.18;;;;;;;4.15;75.82;94034.25;5079603;28;20250;-73
2023/01/10 03:05:52;;;;;;;13.35;12.15;;;;;;;4.17;75.13;94053.00;5096906;28;20221;-72
2023/01/10 03:08:29;;;;;;;13.88;12.48;;;;;;;4.20;75.37;94034.00;5097557;28;20208;-72
2023/01/10 03:10:59;;;;;;;13.80;12.50;;;;;;;4.25;75.03;94039.28;5097275;28;20208;-72
2023/01/10 03:13:32;;;;;;;12.68;11.48;;;;;;;4.29;75.38;94025.75;5097493;28;20220;-72
2023/01/10 03:16:02;;;;;;;12.07;11.05;;;;;;;4.26;74.72;94029.94;5079732;28;20234;-72
2023/01/10 03:18:34;;;;;;;13.82;12.48;;;;;;;4.27;75.07;94047.91;5079895;28;20188;-72
2023/01/10 03:21:08;;;;;;;12.70;11.50;;;;;;;4.32;74.85;94047.72;5079792;28;20204;-72
2023/01/10 03:23:36;;;;;;;11.95;10.85;;;;;;;4.31;74.50;94042.56;5097399;28;20188;-73
2023/01/10 03:26:05;;;;;;;12.23;11.13;;;;;;;4.29;74.82;94055.78;5097479;28;20261;-73
2023/01/10 03:28:35;;;;;;;11.95;10.85;;;;;;;4.26;75.02;94048.25;5079746;28;20201;-73
2023/01/10 03:31:06;;;;;;;11.82;10.82;;;;;;;4.33;74.89;94052.03;5096638;28;20576;-73
2023/01/10 03:33:34;;;;;;;12.73;11.52;;;;;;;4.35;74.63;94027.09;5097207;28;20220;-73
2023/01/10 03:36:15;;;;;;;12.80;11.60;;;;;;;4.39;74.27;94038.16;5097386;28;20197;-73
2023/01/10 03:38:46;;;;;;;11.52;10.48;;;;;;;4.42;74.70;94032.81;5100356;28;20601;-72
2023/01/10 03:41:15;;;;;;;12.43;11.30;;;;;;;4.46;74.45;94039.19;5100284;28;20215;-71
2023/01/10 03:46:36;;;;;;;12.07;10.90;;;;;;;4.46;74.19;94030.19;5096678;28;20262;-72
2023/01/10 03:49:06;;;;;;;12.65;11.45;;;;;;;4.49;73.99;94032.25;5078743;28;20262;-72
2023/01/10 03:51:36;;;;;;;12.35;11.15;;;;;;;4.51;74.03;94022.59;5096753;28;20266;-73
2023/01/10 03:54:04;;;;;;;12.20;11.20;;;;;;;4.48;74.06;94017.81;5096779;28;20232;-72
2023/01/10 03:56:46;;;;;;;12.30;11.10;;;;;;;4.50;73.99;93999.16;5079013;28;20203;-72
2023/01/10 03:59:14;;;;;;;12.43;11.32;;;;;;;4.57;73.83;93982.19;5078516;28;20617;-72
2023/01/10 04:01:42;;;;;;;11.95;10.90;;;;;;;4.54;73.85;93972.75;5077953;28;20208;-72
2023/01/10 04:04:10;;;;;;;12.00;10.90;;;;;;;4.51;73.61;93965.25;5078868;28;20207;-73
2023/01/10 04:06:40;;;;;;;11.80;10.75;;;;;;;4.56;73.70;93958.75;5078790;28;20197;-73
2023/01/10 04:09:09;;;;;;;12.57;11.38;;;;;;;4.54;73.86;93941.94;5096506;28;20215;-73
2023/01/10 04:11:36;;;;;;;11.88;10.77;;;;;;;4.53;73.37;93945.78;5096458;28;20193;-73
2023/01/10 04:14:04;;;;;;;12.57;11.48;;;;;;;4.45;73.58;93944.75;5096018;28;20216;-73
2023/01/10 04:16:32;;;;;;;13.30;12.00;;;;;;;4.45;73.90;93943.97;5078031;28;20207;-73
2023/01/10 04:19:00;;;;;;;12.65;11.50;;;;;;;4.48;74.05;93956.94;5095848;28;20539;-72
2023/01/10 04:21:29;;;;;;;12.88;11.68;;;;;;;4.48;73.96;93976.84;5096157;28;20197;-72
2023/01/10 04:24:01;;;;;;;11.65;10.60;;;;;;;4.48;73.98;93997.91;5078385;28;20203;-72
2023/01/10 04:26:32;;;;;;;12.13;10.98;;;;;;;4.45;73.72;94020.41;5061757;28;20204;-73
2023/01/10 04:28:59;;;;;;;12.50;11.40;;;;;;;4.53;74.21;94030.44;5095796;28;20246;-73
2023/01/10 04:31:27;;;;;;;12.77;11.60;;;;;;;4.55;73.76;94023.50;5078445;28;20200;-73
2023/01/10 04:33:54;;;;;;;13.25;12.05;;;;;;;4.56;73.77;94040.69;5096156;28;20216;-72
2023/01/10 04:36:22;;;;;;;12.82;11.63;;;;;;;4.57;73.64;94050.47;5078592;28;20215;-72
2023/01/10 04:38:52;;;;;;;13.55;12.35;;;;;;;4.59;73.42;94051.72;5077879;28;20200;-72
2023/01/10 04:41:25;;;;;;;14.48;13.18;;;;;;;4.62;73.61;94022.94;5078201;28;20602;-72
2023/01/10 04:43:53;;;;;;;13.80;12.43;;;;;;;4.64;73.63;94023.38;5078222;28;20205;-72
2023/01/10 04:46:20;;;;;;;13.80;12.60;;;;;;;4.65;73.68;94015.97;5078183;28;20204;-72
2023/01/10 04:48:48;;;;;;;13.38;12.15;;;;;;;4.62;73.52;94001.09;5078076;28;20196;-72
2023/01/10 04:51:16;;;;;;;14.00;12.70;;;;;;;4.65;73.74;94007.78;5097324;28;20191;-72
2023/01/10 04:53:43;;;;;;;13.63;12.30;;;;;;;4.66;73.27;94007.47;5096215;28;20212;-72
2023/01/10 04:56:16;;;;;;;14.45;13.10;;;;;;;4.62;73.43;94013.97;5095849;28;20204;-72
2023/01/10 04:58:47;;;;;;;13.82;12.52;;;;;;;4.62;73.44;94012.03;5095883;28;20518;-72
2023/01/10 05:01:16;;;;;;;13.45;12.15;;;;;;;4.61;73.71;94001.41;5077988;28;20208;-72
2023/01/10 05:03:44;;;;;;;12.60;11.50;;;;;;;4.62;73.80;94009.28;5096117;28;20200;-72
2023/01/10 05:06:12;;;;;;;13.23;12.02;;;;;;;4.65;73.29;94000.41;5079359;28;20635;-72
2023/01/10 05:08:39;;;;;;;14.98;13.50;;;;;;;4.69;73.41;94004.06;5079227;28;20204;-73
2023/01/10 05:11:07;;;;;;;16.70;15.00;;;;;;;4.69;73.34;94001.31;5077766;28;20201;-73
2023/01/10 05:13:35;;;;;;;16.35;14.75;;;;;;;4.68;73.33;94001.66;5077215;28;20219;-73
2023/01/10 05:16:05;;;;;;;14.80;13.50;;;;;;;4.70;73.28;93994.72;5077575;28;20207;-72
2023/01/10 05:18:33;;;;;;;14.00;12.70;;;;;;;4.72;73.06;93984.25;5077671;28;20218;-73
2023/01/10 05:21:00;;;;;;;12.85;11.68;;;;;;;4.72;72.70;93984.25;5077758;28;20219;-73
2023/01/10 05:23:28;;;;;;;12.23;11.13;;;;;;;4.77;73.06;93980.50;5095315;28;20185;-73
2023/01/10 05:25:56;;;;;;;13.20;11.90;;;;;;;4.75;73.03;93967.16;5095683;28;20208;-72
2023/01/10 05:28:24;;;;;;;12.82;11.52;;;;;;;4.76;72.99;93971.50;5077210;28;20208;-73
2023/01/10 05:30:54;;;;;;;12.77;11.63;;;;;;;4.77;72.95;93981.28;5077557;28;20197;-73
2023/01/10 05:33:23;;;;;;;12.90;11.80;;;;;;;4.78;73.20;93969.22;5095021;28;20526;-74
2023/01/10 05:35:51;;;;;;;13.40;12.10;;;;;;;4.78;72.95;93993.00;5077972;28;20208;-74
2023/01/10 05:38:18;;;;;;;13.38;12.18;;;;;;;4.77;72.79;94007.81;5078131;28;20197;-76
2023/01/10 05:40:46;;;;;;;15.57;14.07;;;;;;;4.79;72.57;94005.50;5077762;28;20283;-74
2023/01/10 05:43:14;;;;;;;14.38;13.07;;;;;;;4.81;72.57;93998.56;5077606;28;20220;-74
2023/01/10 05:45:42;;;;;;;16.60;15.00;;;;;;;4.86;72.80;94002.22;5078147;28;20200;-74
2023/01/10 05:48:10;;;;;;;17.27;15.57;;;;;;;4.84;72.65;94010.78;5077546;28;20200;-74
2023/01/10 05:50:42;;;;;;;16.42;14.82;;;;;;;4.82;72.82;94008.34;5077069;28;20200;-74
2023/01/10 05:53:10;;;;;;;14.45;13.15;;;;;;;4.84;72.48;93997.09;5077069;28;20210;-74
2023/01/10 05:55:38;;;;;;;14.20;12.80;;;;;;;4.81;72.33;93992.31;5077794;28;20224;-74
2023/01/10 05:58:07;;;;;;;14.95;13.55;;;;;;;4.80;72.37;94005.19;5077277;28;20215;-74
2023/01/10 06:00:33;;;;;;;14.10;12.80;;;;;;;4.82;72.52;93997.44;5077179;28;20230;-74
2023/01/10 06:03:01;;;;;;;12.75;11.55;;;;;;;4.89;72.30;93998.81;5076914;28;20208;-74
2023/01/10 06:05:29;;;;;;;13.07;11.85;;;;;;;4.93;72.13;94002.44;5077873;28;20196;-74
2023/01/10 06:07:59;;;;;;;13.18;11.98;;;;;;;4.95;71.90;93992.75;5077078;28;20258;-74
2023/01/10 06:10:27;;;;;;;13.13;12.02;;;;;;;4.96;72.21;93993.56;5095148;28;20192;-74
2023/01/10 06:12:53;;;;;;;12.70;11.48;;;;;;;4.98;71.98;94002.22;5094494;28;20192;-73
2023/01/10 06:15:22;;;;;;;12.70;11.43;;;;;;;5.03;72.20;94007.44;5095132;28;20216;-74
2023/01/10 06:17:50;;;;;;;13.20;11.93;;;;;;;5.05;71.91;94011.44;5094730;28;20257;-73
2023/01/10 06:20:18;;;;;;;12.27;11.07;;;;;;;5.06;71.82;94006.75;5094890;28;20616;-74
2023/01/10 06:22:45;;;;;;;12.52;11.32;;;;;;;5.02;72.32;94006.66;5077102;28;20628;-73
2023/01/10 06:25:14;;;;;;;12.88;11.70;;;;;;;5.01;72.05;94007.81;5095466;28;20197;-76
2023/01/10 06:27:43;;;;;;;13.32;12.13;;;;;;;4.99;72.54;94010.06;5081269;28;20207;-75
2023/01/10 06:30:13;;;;;;;12.65;11.50;;;;;;;4.97;72.64;94008.81;5081135;28;20203;-74
2023/01/10 06:32:41;;;;;;;13.15;11.88;;;;;;;4.98;72.97;94007.69;5080747;28;20200;-75
2023/01/10 06:35:10;;;;;;;12.73;11.63;;;;;;;4.94;73.95;93999.38;5098454;28;20215;-75
2023/01/10 06:37:38;;;;;;;12.77;11.68;;;;;;;4.94;74.27;93996.66;5097557;28;20426;-73
2023/01/10 06:40:07;;;;;;;11.90;10.85;;;;;;;4.94;74.02;93998.56;5098211;28;20211;-73
2023/01/10 06:42:37;;;;;;;12.40;11.23;;;;;;;4.95;74.39;94005.63;5080097;28;20604;-73
2023/01/10 06:45:06;;;;;;;13.07;11.77;;;;;;;4.93;74.81;94014.16;5098298;28;20185;-73
2023/01/10 06:47:34;;;;;;;12.70;11.50;;;;;;;4.92;74.35;94003.59;5080367;28;20200;-73
2023/01/10 06:50:02;;;;;;;13.57;12.27;;;;;;;4.92;74.73;94004.38;5080248;28;20207;-73
2023/01/10 06:52:30;;;;;;;13.48;12.27;;;;;;;4.93;75.55;94010.63;5080305;28;20204;-73
2023/01/10 06:54:59;;;;;;;12.98;11.68;;;;;;;4.92;75.43;94009.84;5079780;28;20293;-73
2023/01/10 06:57:28;;;;;;;13.80;12.40;;;;;;;4.93;75.66;93999.72;5097925;28;20616;-72
2023/01/10 06:59:57;;;;;;;12.80;11.60;;;;;;;4.88;75.80;93992.53;5080362;28;20204;-72
2023/01/10 07:02:25;;;;;;;14.00;12.25;;;;;;;4.87;76.57;93992.91;5079880;28;20196;-73
2023/01/10 07:04:52;;;;;;;14.48;13.07;;;;;;;4.87;77.24;93992.91;5097712;28;20189;-73
2023/01/10 07:07:19;;;;;;;16.10;14.45;;;;;;;4.88;77.23;93987.09;5089260;28;20203;-73
2023/01/10 07:09:47;;;;;;;18.48;16.48;;;;;;;4.89;77.31;93983.19;5079611;28;20204;-72
2023/01/10 07:12:15;;;;;;;18.95;16.15;;;;;;;4.88;77.47;93978.88;5063121;28;20213;-72
2023/01/10 07:14:45;;;;;;;17.40;15.70;;;;;;;4.91;77.78;93972.75;5079871;28;20266;-72
2023/01/10 07:17:17;;;;;;;17.50;15.80;;;;;;;4.90;77.89;93975.78;5097256;28;20665;-73
2023/01/10 07:19:45;;;;;;;18.55;16.85;;;;;;;4.91;78.15;93975.47;5097757;28;20208;-73
2023/01/10 07:22:13;;;;;;;20.13;17.92;;;;;;;4.91;78.05;93977.41;5079947;28;20205;-73
2023/01/10 07:24:41;;;;;;;22.67;20.25;;;;;;;4.89;78.93;93982.41;5097406;28;20191;-75
2023/01/10 07:27:09;;;;;;;20.02;17.90;;;;;;;4.86;78.81;93981.16;5079681;28;20214;-75
2023/01/10 07:29:36;;;;;;;20.73;18.55;;;;;;;4.83;78.61;93977.19;5097145;28;20201;-74
2023/01/10 07:32:06;;;;;;;19.42;17.40;;;;;;;4.86;78.57;93974.91;5097159;28;20201;-74
2023/01/10 07:34:35;;;;;;;18.90;17.00;;;;;;;4.86;79.20;93967.50;5079603;28;20246;-73
2023/01/10 07:37:02;;;;;;;16.58;14.77;;;;;;;4.89;79.65;93963.28;5096163;28;20211;-73
2023/01/10 07:39:30;;;;;;;17.88;16.08;;;;;;;4.88;80.07;93956.22;5079976;28;20201;-73
2023/01/10 07:42:00;;;;;;;17.30;15.50;;;;;;;4.89;79.87;93963.28;5079778;28;20196;-73
2023/01/10 07:44:27;;;;;;;17.98;16.17;;;;;;;4.88;80.14;93961.69;5079691;28;20196;-73
2023/01/10 07:46:54;;;;;;;23.23;21.08;;;;;;;4.88;79.95;93967.94;5096968;28;20200;-73
2023/01/10 07:49:22;;;;;;;30.67;27.58;;;;;;;4.93;79.97;93967.72;5097153;28;20196;-74
2023/01/10 07:51:51;;;;;;;32.45;29.25;;;;;;;4.96;79.37;93968.97;5079811;28;20204;-73
2023/01/10 07:54:19;;;;;;;31.88;28.85;;;;;;;4.98;80.02;93969.44;5096701;28;20236;-73
2023/01/10 07:56:48;;;;;;;27.70;25.00;;;;;;;4.96;79.86;93966.22;5096810;28;20185;-73
2023/01/10 07:59:16;;;;;;;23.23;20.92;;;;;;;4.97;80.12;93965.88;5096773;28;20204;-73
2023/01/10 08:01:47;;;;;;;22.02;20.05;;;;;;;4.94;80.03;93960.31;5079108;28;20204;-73
2023/01/10 08:04:15;;;;;;;22.40;20.27;;;;;;;4.96;80.28;93953.38;5096760;28;20193;-73
2023/01/10 08:06:43;;;;;;;21.45;19.40;;;;;;;4.96;80.19;93969.75;5078647;28;20205;-73
2023/01/10 08:09:13;;;;;;;19.42;17.52;;;;;;;4.95;80.02;93953.72;5096532;28;20254;-73
2023/01/10 08:11:41;;;;;;;20.00;17.85;;;;;;;4.94;80.30;93952.94;5079045;28;20207;-73
2023/01/10 08:14:08;;;;;;;19.50;17.60;;;;;;;4.91;79.72;93961.81;5078562;28;20513;-74
2023/01/10 08:16:36;;;;;;;18.52;16.67;;;;;;;4.92;79.92;93959.88;5096411;28;20184;-73
2023/01/10 08:19:04;;;;;;;19.95;17.98;;;;;;;4.93;79.97;93954.03;5078302;28;20200;-73
2023/01/10 08:21:32;;;;;;;18.67;16.88;;;;;;;4.94;80.21;93954.84;5096415;28;20195;-73
2023/01/10 08:24:00;;;;;;;18.60;16.90;;;;;;;4.94;79.90;93950.19;5096206;28;20547;-74
2023/01/10 08:26:29;;;;;;;18.45;16.73;;;;;;;4.95;79.63;93951.00;5095870;28;20189;-74
2023/01/10 08:28:57;;;;;;;19.15;17.25;;;;;;;4.94;79.92;93946.63;5078371;28;20208;-74
2023/01/10 08:31:26;;;;;;;20.17;18.23;;;;;;;4.94;79.72;93933.81;5078883;28;20205;-74
2023/01/10 08:33:56;;;;;;;21.95;19.75;;;;;;;4.97;79.66;93924.09;5096134;28;20204;-73
2023/01/10 08:36:27;;;;;;;21.30;19.20;;;;;;;4.95;79.98;93929.91;5078278;28;20309;-73
2023/01/10 08:38:55;;;;;;;20.33;18.33;;;;;;;4.94;79.47;93932.97;5095955;28;20261;-73
2023/01/10 08:41:25;;;;;;;19.65;17.88;;;;;;;4.93;79.57;93915.78;5078215;28;20250;-74
2023/01/10 08:43:55;;;;;;;20.45;18.48;;;;;;;4.93;79.21;93920.47;5096120;28;20265;-74
2023/01/10 08:46:23;;;;;;;20.23;18.33;;;;;;;4.94;79.68;93920.13;5078341;28;20199;-74
2023/01/10 08:48:50;;;;;;;20.98;18.92;;;;;;;4.99;79.58;93928.09;5061488;28;20550;-74
2023/01/10 08:51:18;;;;;;;21.52;19.42;;;;;;;5.02;79.23;93921.13;5095453;28;20658;-74
2023/01/10 08:53:47;;;;;;;20.55;18.50;;;;;;;4.99;78.98;93911.69;5095595;28;20192;-74
2023/01/10 08:56:15;;;;;;;20.65;18.75;;;;;;;4.98;78.98;93912.84;5095758;28;20652;-74
2023/01/10 08:58:41;;;;;;;20.45;18.48;;;;;;;4.97;79.29;93913.97;5095432;28;20191;-74
2023/01/10 09:01:12;;;;;;;18.02;16.42;;;;;;;4.97;78.90;93916.69;5095498;28;20193;-73
2023/01/10 09:03:40;;;;;;;19.08;17.35;;;;;;;4.98;78.78;93912.03;5095632;28;20299;-73
2023/01/10 09:06:08;;;;;;;18.95;17.20;;;;;;;4.99;79.08;93908.94;5095794;28;20196;-73
2023/01/10 09:08:37;;;;;;;18.05;16.45;;;;;;;4.98;78.95;93904.63;5077517;28;20668;-73
2023/01/10 09:11:06;;;;;;;18.02;16.42;;;;;;;4.95;78.99;93891.66;5077619;28;20204;-74
2023/01/10 09:13:34;;;;;;;18.52;16.92;;;;;;;4.92;79.46;93895.09;5095491;28;20257;-74
2023/01/10 09:16:02;;;;;;;18.95;17.23;;;;;;;4.95;79.64;93897.13;5095622;28;20223;-74
2023/01/10 09:18:32;;;;;;;19.30;17.50;;;;;;;4.98;79.82;93899.19;5077729;28;20193;-74
2023/01/10 09:21:00;;;;;;;19.55;17.58;;;;;;;5.04;80.13;93900.50;5077564;28;20205;-73
2023/01/10 09:23:28;;;;;;;19.02;17.05;;;;;;;5.07;79.81;93894.34;5095656;28;20197;-75
2023/01/10 09:25:56;;;;;;;19.42;17.60;;;;;;;5.10;79.84;93889.34;5077789;28;20216;-73
2023/01/10 09:28:24;;;;;;;19.98;18.17;;;;;;;5.11;79.96;93894.44;5095308;28;20210;-73
2023/01/10 09:30:51;;;;;;;21.35;19.27;;;;;;;5.07;79.97;93890.81;5094936;28;20552;-73
2023/01/10 09:33:20;;;;;;;19.80;17.98;;;;;;;5.09;79.66;93893.22;5095347;28;20208;-73
2023/01/10 09:35:58;;;;;;;20.38;18.42;;;;;;;5.12;79.47;93887.88;5077629;28;20227;-73
2023/01/10 09:38:27;;;;;;;20.65;18.55;;;;;;;5.15;79.67;93887.16;5095021;28;20546;-73
2023/01/10 09:41:08;;;;;;;20.52;18.45;;;;;;;5.16;79.67;93875.09;5094960;28;20199;-72
2023/01/10 09:43:44;;;;;;;19.73;17.75;;;;;;;5.15;79.85;93865.28;5095332;28;20197;-73
2023/01/10 09:46:15;;;;;;;20.95;18.88;;;;;;;5.15;80.25;93861.75;5077736;28;20195;-73
2023/01/10 09:48:49;;;;;;;20.60;18.40;;;;;;;5.16;80.18;93855.97;5095307;28;20188;-73
2023/01/10 09:51:29;;;;;;;22.58;20.35;;;;;;;5.20;80.05;93859.59;5094866;28;20196;-73
2023/01/10 09:54:00;;;;;;;21.27;19.25;;;;;;;5.23;80.41;93867.09;5077358;28;20238;-73
2023/01/10 09:56:29;;;;;;;21.27;19.08;;;;;;;5.24;80.37;93863.22;5094721;28;20209;-73
2023/01/10 09:59:01;;;;;;;22.38;20.15;;;;;;;5.24;80.04;93852.28;5077356;28;20200;-73
2023/01/10 10:01:35;;;;;;;22.52;20.20;;;;;;;5.25;80.15;93848.38;5097695;28;20209;-73
2023/01/10 10:04:11;;;;;;;21.48;19.17;;;;;;;5.26;80.10;93841.75;5081221;28;20249;-73
2023/01/10 10:06:41;;;;;;;23.38;20.98;;;;;;;5.24;80.14;93838.59;5099006;28;20662;-72
2023/01/10 10:09:10;;;;;;;23.85;21.27;;;;;;;5.24;80.64;93830.41;5081028;28;20201;-72
2023/01/10 10:11:46;;;;;;;22.05;19.85;;;;;;;5.24;80.39;93835.88;5080981;28;20200;-72
2023/01/10 10:14:25;;;;;;;22.73;20.40;;;;;;;5.25;80.90;93848.38;5081281;28;20195;-73
2023/01/10 10:17:04;;;;;;;21.52;19.33;;;;;;;5.28;80.57;93835.97;5080820;28;20227;-73
2023/01/10 10:19:37;;;;;;;22.20;20.10;;;;;;;5.28;80.71;93833.22;5098876;28;20546;-73
2023/01/10 10:22:11;;;;;;;20.90;18.75;;;;;;;5.28;80.38;93830.50;5098230;28;20196;-73
2023/01/10 10:24:48;;;;;;;23.35;19.48;;;;;;;5.27;80.96;93826.19;5098775;28;20196;-73
2023/01/10 10:27:21;;;;;;;21.73;19.52;;;;;;;5.26;81.22;93824.56;5097989;28;20192;-73
2023/01/10 10:30:19;;;;;;;23.15;20.25;;;;;;;5.29;81.46;93818.41;5098209;28;20196;-73
2023/01/10 10:33:00;;;;;;;21.90;19.60;;;;;;;5.30;81.19;93815.34;5098349;28;20197;-73
2023/01/10 10:35:32;;;;;;;23.02;20.63;;;;;;;5.28;80.88;93816.81;5098351;28;20223;-73
2023/01/10 10:38:08;;;;;;;19.63;17.63;;;;;;;5.25;81.23;93810.13;5080332;28;20205;-73
2023/01/10 10:40:39;;;;;;;20.27;18.17;;;;;;;5.26;81.24;93799.97;5098264;28;20196;-73
2023/01/10 10:43:19;;;;;;;21.63;19.35;;;;;;;5.23;81.28;93806.94;5098177;28;20219;-73
2023/01/10 10:45:51;;;;;;;20.92;18.83;;;;;;;5.24;81.70;93805.00;5098124;28;20193;-73
2023/01/10 10:48:26;;;;;;;20.88;18.77;;;;;;;5.29;81.69;93799.28;5080274;28;20204;-73
2023/01/10 10:51:00;;;;;;;21.15;18.90;;;;;;;5.29;82.07;93794.59;5097895;28;20196;-73
2023/01/10 10:53:31;;;;;;;22.55;20.27;;;;;;;5.32;82.20;93799.38;5080671;28;20231;-73
2023/01/10 10:55:59;;;;;;;22.90;20.63;;;;;;;5.35;81.95;93792.41;5060362;28;20279;-73
2023/01/10 10:58:30;;;;;;;21.98;19.65;;;;;;;5.40;82.13;93802.28;5060257;28;20209;-73
2023/01/10 11:00:59;;;;;;;28.42;21.63;;;;;;;5.43;81.86;93796.91;5060342;28;20211;-73
2023/01/10 11:03:32;;;;;;;24.05;20.17;;;;;;;5.44;81.68;93803.16;5077852;28;20258;-73
2023/01/10 11:06:01;;;;;;;22.02;19.65;;;;;;;5.46;82.11;93809.09;5059794;28;20194;-73
2023/01/10 11:08:31;;;;;;;21.13;19.00;;;;;;;5.47;82.21;93803.25;5077736;28;20204;-73
2023/01/10 11:10:59;;;;;;;21.52;19.33;;;;;;;5.53;81.83;93801.88;5060038;28;20197;-73
2023/01/10 11:13:39;;;;;;;21.63;19.42;;;;;;;5.53;81.68;93787.41;5060125;28;20278;-73
2023/01/10 11:16:08;;;;;;;20.83;18.77;;;;;;;5.49;81.49;93783.78;5077418;28;20239;-73
2023/01/10 11:18:37;;;;;;;21.85;19.85;;;;;;;5.50;82.21;93779.91;5077377;28;20211;-74
2023/01/10 11:21:08;;;;;;;20.67;18.67;;;;;;;5.49;82.32;93770.13;5059499;28;20212;-73
2023/01/10 11:23:43;;;;;;;20.95;18.83;;;;;;;5.54;81.97;93772.56;5077275;28;20197;-73
2023/01/10 11:26:26;;;;;;;19.27;17.38;;;;;;;5.54;82.00;93776.09;5077370;28;20193;-73
2023/01/10 11:29:05;;;;;;;18.10;16.33;;;;;;;5.54;82.10;93776.09;5060092;28;20578;-73
2023/01/10 11:31:35;;;;;;;19.10;17.20;;;;;;;5.55;82.13;93783.19;5070591;28;20620;-73
2023/01/10 11:34:07;;;;;;;18.48;16.70;;;;;;;5.52;82.18;93770.22;5059757;28;20255;-73
2023/01/10 11:36:57;;;;;;;17.38;15.77;;;;;;;5.50;82.18;93764.28;5059849;28;20221;-73
2023/01/10 11:39:27;;;;;;;16.98;15.38;;;;;;;5.51;82.32;93763.13;5059333;28;20602;-73
2023/01/10 11:41:58;;;;;;;17.92;16.23;;;;;;;5.53;82.22;93768.25;5058979;28;20247;-73
2023/01/10 11:44:27;;;;;;;16.73;15.13;;;;;;;5.53;82.53;93773.72;5076836;28;20549;-73
2023/01/10 11:46:57;;;;;;;16.70;15.10;;;;;;;5.54;82.50;93767.09;5075834;28;20223;-73
2023/01/10 11:49:29;;;;;;;16.45;14.95;;;;;;;5.53;82.47;93765.53;5076578;28;20197;-73
2023/01/10 11:52:01;;;;;;;17.33;15.68;;;;;;;5.52;82.96;93764.72;5059331;28;20212;-73